Time;durP1;ratioP1;P1;durP2;ratioP2;P2;SDS_P1;SDS_P2;PMS_P1;PMS_P2;Temp;Humidity;BMP_temperature;BMP_pressure;BME280_temperature;BME280_humidity;BME280_pressure;Samples;Min_cycle;Max_cycle;Signal;HPM_P1;HPM_P2
2021/10/22 00:02:00;;;;;;;5.83;1.13;;;9.10;99.90;;;;;;5009970;28;38781;-71
2021/10/22 00:04:26;;;;;;;10.67;1.67;;;9.10;99.90;;;;;;5014714;28;36807;-71
2021/10/22 00:06:52;;;;;;;7.40;1.27;;;9.10;99.90;;;;;;5019096;28;38746;-70
2021/10/22 00:09:18;;;;;;;7.03;1.33;;;9.10;99.90;;;;;;5007442;28;38924;-71
2021/10/22 00:11:45;;;;;;;13.60;1.60;;;9.00;99.90;;;;;;5013502;28;38485;-71
2021/10/22 00:14:13;;;;;;;4.87;1.13;;;8.90;99.90;;;;;;5041067;28;36145;-71
2021/10/22 00:16:40;;;;;;;6.67;1.40;;;9.00;99.90;;;;;;5019121;28;37867;-71
2021/10/22 00:19:06;;;;;;;11.47;1.40;;;9.00;99.90;;;;;;5016891;28;40286;-70
2021/10/22 00:21:32;;;;;;;10.20;1.40;;;9.00;99.90;;;;;;5036075;28;39744;-71
2021/10/22 00:23:58;;;;;;;9.80;1.77;;;8.90;99.90;;;;;;5023492;28;37247;-71
2021/10/22 00:26:24;;;;;;;10.50;1.57;;;8.90;99.90;;;;;;5019751;28;38774;-70
2021/10/22 00:28:51;;;;;;;11.37;1.80;;;9.00;99.90;;;;;;5037494;28;39414;-70
2021/10/22 00:31:17;;;;;;;12.27;2.23;;;9.10;99.90;;;;;;5022771;28;38177;-70
2021/10/22 00:33:43;;;;;;;8.33;1.40;;;9.10;99.90;;;;;;5021039;28;37250;-71
2021/10/22 00:36:11;;;;;;;6.50;1.67;;;9.00;99.90;;;;;;5015423;28;39010;-70
2021/10/22 00:38:38;;;;;;;8.20;1.80;;;9.00;99.90;;;;;;5016767;28;38845;-70
2021/10/22 00:41:05;;;;;;;10.23;1.93;;;9.00;99.90;;;;;;5024147;28;38725;-71
2021/10/22 00:43:32;;;;;;;8.87;2.03;;;9.00;99.90;;;;;;5018454;28;36785;-71
2021/10/22 00:45:59;;;;;;;9.13;1.57;;;9.10;99.90;;;;;;5014243;28;37438;-70
2021/10/22 00:48:26;;;;;;;6.17;1.40;;;9.10;99.90;;;;;;5020161;28;38485;-70
2021/10/22 00:50:58;;;;;;;10.43;1.37;;;9.00;99.90;;;;;;5015060;28;37664;-70
2021/10/22 00:53:26;;;;;;;10.88;1.80;;;9.00;99.90;;;;;;5010777;28;37787;-70
2021/10/22 00:55:53;;;;;;;15.17;1.90;;;9.00;99.90;;;;;;5006644;28;40251;-71
2021/10/22 00:58:21;;;;;;;14.80;1.70;;;8.90;99.90;;;;;;5015865;28;39997;-70
2021/10/22 01:00:48;;;;;;;8.73;1.63;;;8.90;99.90;;;;;;5013952;28;38536;-70
2021/10/22 01:03:15;;;;;;;11.33;1.43;;;8.80;99.90;;;;;;5010696;28;37393;-69
2021/10/22 01:05:43;;;;;;;9.10;1.87;;;8.80;99.90;;;;;;5018135;28;38475;-71
2021/10/22 01:08:10;;;;;;;14.10;1.77;;;8.80;99.90;;;;;;5017642;28;38282;-70
2021/10/22 01:10:39;;;;;;;7.03;1.33;;;8.80;99.90;;;;;;5018749;28;38320;-70
2021/10/22 01:13:06;;;;;;;11.23;1.70;;;8.80;99.90;;;;;;5033778;28;37223;-70
2021/10/22 01:15:33;;;;;;;12.30;1.93;;;8.90;99.90;;;;;;5021950;28;39484;-71
2021/10/22 01:18:00;;;;;;;10.30;1.77;;;9.00;99.90;;;;;;5010020;28;40118;-70
2021/10/22 01:20:27;;;;;;;14.10;2.03;;;9.10;99.90;;;;;;5039756;28;47957;-70
2021/10/22 01:22:55;;;;;;;13.87;2.07;;;9.20;99.90;;;;;;5029643;28;37296;-70
2021/10/22 01:25:28;;;;;;;13.57;2.43;;;9.20;99.90;;;;;;5016088;28;39419;-70
2021/10/22 01:27:54;;;;;;;;;;;9.20;99.90;;;;;;5013877;28;39188;-71
2021/10/22 01:30:23;;;;;;;16.37;1.90;;;9.20;99.90;;;;;;5013115;28;38551;-70
2021/10/22 01:32:52;;;;;;;9.97;1.40;;;9.30;99.90;;;;;;5010821;28;37747;-70
2021/10/22 01:35:18;;;;;;;10.77;1.90;;;9.40;99.90;;;;;;5040938;28;38997;-70
2021/10/22 01:37:44;;;;;;;10.03;1.97;;;9.40;99.90;;;;;;5025607;28;38579;-71
2021/10/22 01:40:11;;;;;;;14.60;2.13;;;9.40;99.90;;;;;;5015453;28;39857;-71
2021/10/22 01:42:38;;;;;;;18.30;2.47;;;9.40;99.90;;;;;;5027481;28;39004;-70
2021/10/22 01:45:05;;;;;;;12.17;1.57;;;9.40;99.90;;;;;;5034682;28;39606;-70
2021/10/22 01:47:31;;;;;;;11.67;1.97;;;9.50;99.90;;;;;;5040552;28;48478;-72
2021/10/22 01:49:57;;;;;;;10.43;1.90;;;9.50;99.90;;;;;;5038075;28;39445;-72
2021/10/22 01:52:24;;;;;;;12.90;2.47;;;9.50;99.90;;;;;;5016644;28;37537;-73
2021/10/22 01:54:50;;;;;;;17.70;2.77;;;9.50;99.90;;;;;;5027470;28;39578;-72
2021/10/22 01:57:16;;;;;;;14.17;2.17;;;9.60;99.90;;;;;;5011502;28;38150;-71
2021/10/22 01:59:43;;;;;;;25.20;3.63;;;9.70;99.90;;;;;;5043731;28;38394;-73
2021/10/22 02:02:10;;;;;;;11.17;2.10;;;9.80;99.90;;;;;;5010156;28;36291;-72
2021/10/22 02:04:36;;;;;;;14.43;2.80;;;9.90;99.90;;;;;;5024714;28;38903;-73
2021/10/22 02:07:03;;;;;;;16.73;2.70;;;9.90;99.90;;;;;;5026494;28;37865;-73
2021/10/22 02:09:29;;;;;;;22.00;3.33;;;9.90;99.90;;;;;;5025733;28;39432;-72
2021/10/22 02:11:55;;;;;;;18.17;3.43;;;9.80;99.90;;;;;;5014663;28;37251;-72
2021/10/22 02:14:21;;;;;;;16.73;2.80;;;9.80;99.90;;;;;;5022813;28;37831;-73
2021/10/22 02:16:48;;;;;;;12.40;1.80;;;9.80;99.90;;;;;;5009943;28;37625;-72
2021/10/22 02:19:14;;;;;;;18.03;3.17;;;9.80;99.90;;;;;;5024772;28;39238;-72
2021/10/22 02:21:41;;;;;;;11.77;2.00;;;9.80;99.90;;;;;;5014150;28;38812;-73
2021/10/22 02:24:07;;;;;;;9.53;1.70;;;9.90;99.90;;;;;;5015534;28;37582;-73
2021/10/22 02:26:36;;;;;;;12.47;2.40;;;10.00;99.90;;;;;;5025872;28;38175;-73
2021/10/22 02:29:04;;;;;;;15.37;2.30;;;9.90;99.90;;;;;;5026087;28;38562;-73
2021/10/22 02:31:30;;;;;;;16.80;2.20;;;10.00;99.90;;;;;;5017152;28;36037;-73
2021/10/22 02:33:56;;;;;;;10.67;2.20;;;10.00;99.90;;;;;;5011992;28;39850;-72
2021/10/22 02:36:23;;;;;;;14.77;2.70;;;10.00;99.90;;;;;;5041085;28;38784;-73
2021/10/22 02:38:49;;;;;;;9.90;1.90;;;10.00;99.90;;;;;;5035034;28;38659;-72
2021/10/22 02:41:15;;;;;;;15.27;2.10;;;10.10;99.90;;;;;;5046070;28;37150;-72
2021/10/22 02:43:41;;;;;;;17.60;2.50;;;10.10;99.90;;;;;;5042185;28;38377;-72
2021/10/22 02:46:08;;;;;;;14.70;1.97;;;10.10;99.90;;;;;;5038035;28;39592;-72
2021/10/22 02:48:34;;;;;;;12.13;2.13;;;10.10;99.90;;;;;;5034973;28;38295;-73
2021/10/22 02:51:00;;;;;;;15.60;2.60;;;10.10;99.90;;;;;;5040813;28;38210;-72
2021/10/22 02:53:26;;;;;;;12.93;2.10;;;10.20;99.90;;;;;;5011640;28;37670;-72
2021/10/22 02:55:52;;;;;;;9.50;2.03;;;10.30;99.90;;;;;;5031307;28;38953;-72
2021/10/22 02:58:18;;;;;;;11.23;2.07;;;10.40;99.90;;;;;;5038525;28;38310;-72
2021/10/22 03:00:45;;;;;;;8.70;2.57;;;10.40;99.90;;;;;;5034088;28;37283;-72
2021/10/22 03:03:11;;;;;;;8.77;1.70;;;10.40;99.90;;;;;;4992526;28;37592;-73
2021/10/22 03:05:37;;;;;;;13.67;1.70;;;10.40;99.90;;;;;;5011895;28;38545;-72
2021/10/22 03:08:04;;;;;;;12.70;2.13;;;10.40;99.90;;;;;;5015246;28;38506;-73
2021/10/22 03:10:30;;;;;;;8.30;1.50;;;10.40;99.90;;;;;;5025206;28;37886;-72
2021/10/22 03:12:56;;;;;;;11.27;2.13;;;10.50;99.90;;;;;;5008086;28;39597;-73
2021/10/22 03:15:22;;;;;;;10.60;1.40;;;10.60;99.90;;;;;;5031753;28;38668;-72
2021/10/22 03:17:48;;;;;;;15.07;2.37;;;10.60;99.90;;;;;;5021224;28;40112;-73
2021/10/22 03:20:14;;;;;;;10.10;1.87;;;10.60;99.90;;;;;;5034434;28;37792;-72
2021/10/22 03:22:40;;;;;;;12.37;2.07;;;10.60;99.90;;;;;;5027343;28;39208;-72
2021/10/22 03:25:07;;;;;;;13.33;2.10;;;10.60;99.90;;;;;;5032841;28;38684;-72
2021/10/22 03:27:34;;;;;;;13.98;2.05;;;10.60;99.90;;;;;;5018022;28;39022;-72
2021/10/22 03:30:00;;;;;;;9.93;1.83;;;10.70;99.90;;;;;;5042195;28;38158;-72
2021/10/22 03:32:27;;;;;;;12.93;2.72;;;10.70;99.90;;;;;;5019478;28;46877;-72
2021/10/22 03:34:53;;;;;;;15.47;2.20;;;10.60;99.90;;;;;;5035954;28;38927;-72
2021/10/22 03:37:19;;;;;;;10.87;1.70;;;10.60;99.90;;;;;;5031305;28;38338;-72
2021/10/22 03:39:46;;;;;;;13.52;1.83;;;10.60;99.90;;;;;;5021583;28;37327;-73
2021/10/22 03:42:12;;;;;;;14.00;2.33;;;10.60;99.90;;;;;;5024464;28;40451;-72
2021/10/22 03:44:38;;;;;;;15.90;1.93;;;10.70;99.90;;;;;;5035515;28;39052;-73
2021/10/22 03:47:05;;;;;;;12.68;1.75;;;10.70;99.90;;;;;;5039522;28;39216;-73
2021/10/22 03:49:31;;;;;;;12.43;1.52;;;10.70;99.90;;;;;;5023808;28;37631;-72
2021/10/22 03:51:57;;;;;;;10.80;2.08;;;10.70;99.90;;;;;;5036523;28;39547;-72
2021/10/22 03:54:23;;;;;;;9.45;1.77;;;10.70;99.90;;;;;;5012849;28;39586;-72
2021/10/22 03:56:49;;;;;;;12.80;1.80;;;10.80;99.90;;;;;;5032072;28;38552;-72
2021/10/22 03:59:16;;;;;;;10.75;2.15;;;10.80;99.90;;;;;;5025668;28;37204;-72
2021/10/22 04:01:43;;;;;;;13.50;2.05;;;10.80;99.90;;;;;;5018346;28;40322;-71
2021/10/22 04:04:10;;;;;;;12.47;2.30;;;10.80;99.90;;;;;;5020750;28;38614;-72
2021/10/22 04:06:36;;;;;;;13.38;2.50;;;10.90;99.90;;;;;;5031051;28;38242;-73
2021/10/22 04:09:02;;;;;;;9.45;1.90;;;10.90;99.90;;;;;;5039954;28;37106;-73
2021/10/22 04:11:28;;;;;;;9.68;2.03;;;10.80;99.90;;;;;;5042676;28;39785;-73
2021/10/22 04:13:55;;;;;;;11.05;2.38;;;10.70;99.90;;;;;;5033305;28;39290;-72
2021/10/22 04:16:23;;;;;;;16.65;2.08;;;10.60;99.90;;;;;;5002795;28;37646;-72
2021/10/22 04:18:49;;;;;;;9.73;1.63;;;10.70;99.90;;;;;;5030315;28;37173;-73
2021/10/22 04:21:15;;;;;;;9.43;2.10;;;10.60;99.90;;;;;;5022589;28;39322;-72
2021/10/22 04:23:41;;;;;;;10.30;2.30;;;10.70;99.90;;;;;;5016116;28;38721;-73
2021/10/22 04:26:07;;;;;;;14.20;2.93;;;10.60;99.90;;;;;;5020477;28;40201;-72
2021/10/22 04:28:34;;;;;;;8.57;1.77;;;10.60;99.90;;;;;;5020352;28;37627;-72
2021/10/22 04:31:00;;;;;;;10.57;2.75;;;10.80;99.90;;;;;;5038183;28;39942;-71
2021/10/22 04:33:26;;;;;;;9.27;1.67;;;10.90;99.90;;;;;;5005783;28;39274;-72
2021/10/22 04:35:52;;;;;;;19.15;2.63;;;10.90;99.90;;;;;;5020197;28;38316;-72
2021/10/22 04:40:51;;;;;;;14.95;2.20;;;11.00;99.90;;;;;;5035565;28;39203;-69
2021/10/22 04:43:18;;;;;;;12.70;1.80;;;11.00;99.90;;;;;;5032032;28;38596;-72
2021/10/22 04:45:49;;;;;;;14.65;1.80;;;10.90;99.90;;;;;;5010547;28;36990;-71
2021/10/22 04:48:16;;;;;;;12.77;2.00;;;11.00;99.90;;;;;;5015136;28;38986;-73
2021/10/22 04:50:51;;;;;;;11.55;1.77;;;10.90;99.90;;;;;;5031537;28;40217;-72
2021/10/22 04:53:22;;;;;;;10.70;1.45;;;11.00;99.90;;;;;;5009993;28;39480;-72
2021/10/22 04:55:49;;;;;;;15.75;1.75;;;11.00;99.90;;;;;;5038195;28;38547;-73
2021/10/22 04:58:15;;;;;;;12.63;2.20;;;11.10;99.90;;;;;;5018115;28;36132;-72
2021/10/22 05:00:41;;;;;;;10.38;1.95;;;11.10;99.90;;;;;;5038458;28;38905;-72
2021/10/22 05:03:07;;;;;;;11.35;1.50;;;11.10;99.90;;;;;;5042314;28;39504;-72
2021/10/22 05:05:33;;;;;;;9.88;1.73;;;11.10;99.90;;;;;;5017880;28;38397;-73
2021/10/22 05:07:59;;;;;;;9.27;1.80;;;11.10;99.90;;;;;;5031082;28;37318;-72
2021/10/22 05:10:26;;;;;;;8.90;1.58;;;11.10;99.90;;;;;;5024821;28;38767;-72
2021/10/22 05:12:52;;;;;;;8.68;1.63;;;11.10;99.90;;;;;;5026182;28;37910;-73
2021/10/22 05:15:18;;;;;;;12.98;1.88;;;11.00;99.90;;;;;;5019182;28;38770;-72
2021/10/22 05:17:44;;;;;;;11.00;1.60;;;10.90;99.90;;;;;;5011914;28;37109;-72
2021/10/22 05:20:12;;;;;;;14.07;1.70;;;10.80;99.90;;;;;;5013980;28;39886;-73
2021/10/22 05:22:39;;;;;;;15.13;1.80;;;10.80;99.90;;;;;;5030282;28;40221;-72
2021/10/22 05:25:07;;;;;;;11.50;1.80;;;10.80;99.90;;;;;;5009427;28;38844;-73
2021/10/22 05:27:33;;;;;;;10.67;1.50;;;10.90;99.90;;;;;;5002688;28;36417;-73
2021/10/22 05:29:59;;;;;;;10.63;1.43;;;10.80;99.90;;;;;;5019158;28;39527;-73
2021/10/22 05:32:26;;;;;;;10.40;1.80;;;10.80;99.90;;;;;;5036870;28;39091;-73
2021/10/22 05:34:52;;;;;;;8.90;1.60;;;10.90;99.90;;;;;;5013721;28;39036;-73
2021/10/22 05:37:18;;;;;;;11.70;1.47;;;10.90;99.90;;;;;;5011525;28;38156;-73
2021/10/22 05:39:45;;;;;;;7.13;1.63;;;11.00;99.90;;;;;;5038848;28;39816;-73
2021/10/22 05:42:11;;;;;;;8.85;1.60;;;11.00;99.90;;;;;;5034462;28;39117;-73
2021/10/22 05:44:37;;;;;;;9.07;1.33;;;11.00;99.90;;;;;;5019558;28;38848;-72
2021/10/22 05:47:03;;;;;;;9.13;1.50;;;11.00;99.90;;;;;;5027766;28;37940;-73
2021/10/22 05:49:30;;;;;;;6.90;1.33;;;10.90;99.90;;;;;;5018924;28;38602;-73
2021/10/22 05:51:56;;;;;;;13.97;2.47;;;10.90;99.90;;;;;;5041787;28;38917;-72
2021/10/22 05:54:22;;;;;;;13.83;1.77;;;10.80;99.90;;;;;;5040479;28;39221;-73
2021/10/22 05:56:49;;;;;;;9.50;1.60;;;10.90;99.90;;;;;;5015155;28;37514;-73
2021/10/22 05:59:16;;;;;;;11.18;1.52;;;11.00;99.90;;;;;;5019880;28;39488;-72
2021/10/22 06:01:42;;;;;;;8.73;1.38;;;11.00;99.90;;;;;;5034519;28;38754;-71
2021/10/22 06:04:08;;;;;;;12.40;2.10;;;11.00;99.90;;;;;;5007229;28;37369;-73
2021/10/22 06:06:34;;;;;;;9.85;1.77;;;11.10;99.90;;;;;;5039464;28;36932;-73
2021/10/22 06:09:01;;;;;;;8.80;1.63;;;11.10;99.90;;;;;;5039920;28;38708;-73
2021/10/22 06:11:27;;;;;;;11.77;2.05;;;11.10;99.90;;;;;;5018260;28;47318;-72
2021/10/22 06:13:53;;;;;;;13.73;1.55;;;11.10;99.90;;;;;;5018208;28;38929;-72
2021/10/22 06:16:19;;;;;;;10.43;2.08;;;11.20;99.90;;;;;;5017086;28;37557;-73
2021/10/22 06:18:48;;;;;;;9.88;1.40;;;11.20;99.90;;;;;;5018389;28;39980;-73
2021/10/22 06:21:35;;;;;;;6.63;1.45;;;11.10;99.90;;;;;;5011557;28;40333;-73
2021/10/22 06:24:03;;;;;;;8.32;1.85;;;11.10;99.90;;;;;;5023139;28;37894;-73
2021/10/22 06:26:32;;;;;;;8.48;1.63;;;11.10;99.90;;;;;;5038565;28;48360;-73
2021/10/22 06:29:03;;;;;;;7.50;1.52;;;11.10;99.90;;;;;;5034729;28;38005;-73
2021/10/22 06:31:30;;;;;;;9.43;2.00;;;11.10;99.90;;;;;;5042806;28;48737;-73
2021/10/22 06:33:56;;;;;;;16.45;1.80;;;11.10;99.90;;;;;;5027139;28;38916;-73
2021/10/22 06:36:24;;;;;;;10.23;2.38;;;11.10;99.90;;;;;;5011187;28;36022;-73
2021/10/22 06:38:52;;;;;;;9.10;1.80;;;11.20;99.90;;;;;;5039993;28;38834;-72
2021/10/22 06:41:18;;;;;;;19.25;2.65;;;11.10;99.90;;;;;;5029254;28;39807;-72
2021/10/22 06:43:45;;;;;;;14.27;1.80;;;11.10;99.90;;;;;;5006554;28;40333;-72
2021/10/22 06:46:13;;;;;;;13.80;2.20;;;11.10;99.90;;;;;;5016395;28;37809;-72
2021/10/22 06:48:41;;;;;;;22.48;1.90;;;11.10;99.90;;;;;;5031182;28;38757;-72
2021/10/22 06:51:09;;;;;;;10.85;1.70;;;11.00;99.90;;;;;;5012135;28;37842;-72
2021/10/22 06:53:36;;;;;;;12.48;2.20;;;11.10;99.90;;;;;;5019375;28;38938;-72
2021/10/22 06:56:03;;;;;;;10.20;2.03;;;11.10;99.90;;;;;;4999548;28;38014;-72
2021/10/22 06:58:30;;;;;;;13.68;2.60;;;11.10;99.90;;;;;;5034448;28;39519;-72
2021/10/22 07:00:58;;;;;;;13.18;2.20;;;11.10;99.90;;;;;;5010263;28;39471;-72
2021/10/22 07:03:25;;;;;;;8.02;1.95;;;11.10;99.90;;;;;;5010678;28;39121;-73
2021/10/22 07:08:25;;;;;;;11.30;2.30;;;11.00;99.90;;;;;;5033606;28;39130;-72
2021/10/22 07:10:52;;;;;;;10.07;1.45;;;11.10;99.90;;;;;;5032286;28;39120;-73
2021/10/22 07:13:19;;;;;;;10.93;2.03;;;11.10;99.90;;;;;;5009815;28;40033;-73
2021/10/22 07:15:45;;;;;;;17.45;2.35;;;11.00;99.90;;;;;;5016812;28;37843;-73
2021/10/22 07:18:11;;;;;;;10.48;2.53;;;11.10;99.90;;;;;;4996879;28;40831;-73
2021/10/22 07:20:37;;;;;;;15.90;3.35;;;11.10;99.90;;;;;;5020318;28;39442;-73
2021/10/22 07:23:08;;;;;;;16.13;2.88;;;11.20;99.90;;;;;;5035465;28;39565;-74
2021/10/22 07:25:37;;;;;;;9.32;2.05;;;11.20;99.90;;;;;;5014939;28;38906;-74
2021/10/22 07:28:16;;;;;;;9.57;2.28;;;11.20;99.90;;;;;;5006810;28;38162;-76
2021/10/22 07:30:44;;;;;;;8.88;1.63;;;11.30;99.90;;;;;;5009632;28;38512;-73
2021/10/22 07:33:11;;;;;;;11.93;1.92;;;11.30;99.90;;;;;;5006193;28;37470;-73
2021/10/22 07:35:39;;;;;;;12.02;2.10;;;11.30;99.90;;;;;;5023318;28;37027;-73
2021/10/22 07:38:09;;;;;;;8.30;1.73;;;11.30;99.90;;;;;;5004946;28;38797;-74
2021/10/22 07:40:40;;;;;;;14.40;2.65;;;11.30;99.90;;;;;;5012610;28;37825;-73
2021/10/22 07:43:06;;;;;;;15.38;2.28;;;11.30;99.90;;;;;;5020876;28;37737;-73
2021/10/22 07:45:33;;;;;;;13.77;2.40;;;11.40;99.90;;;;;;5018152;28;36363;-73
2021/10/22 07:47:59;;;;;;;8.45;1.75;;;11.50;99.90;;;;;;5038615;28;39033;-73
2021/10/22 07:50:26;;;;;;;12.93;2.30;;;11.50;99.90;;;;;;5017768;28;39347;-73
2021/10/22 07:52:52;;;;;;;8.35;2.08;;;11.50;99.90;;;;;;5039541;28;38440;-73
2021/10/22 07:55:18;;;;;;;8.35;2.13;;;11.60;99.90;;;;;;5042189;28;38740;-73
2021/10/22 07:57:44;;;;;;;15.77;2.88;;;11.60;99.90;;;;;;5040221;28;39514;-73
2021/10/22 08:00:11;;;;;;;11.75;1.80;;;11.60;99.90;;;;;;5031935;28;38857;-74
2021/10/22 08:02:38;;;;;;;16.85;2.35;;;11.70;99.90;;;;;;5033208;28;39995;-73
2021/10/22 08:05:05;;;;;;;13.32;1.88;;;11.80;99.90;;;;;;5018217;28;38857;-73
2021/10/22 08:07:33;;;;;;;18.58;2.53;;;11.80;99.90;;;;;;5033404;28;38707;-73
2021/10/22 08:10:00;;;;;;;18.60;2.55;;;11.80;99.90;;;;;;5028760;28;39479;-73
2021/10/22 08:12:27;;;;;;;10.95;2.60;;;11.90;99.90;;;;;;5031511;28;38671;-73
2021/10/22 08:14:53;;;;;;;17.23;1.90;;;11.90;99.90;;;;;;5034533;28;36501;-73
2021/10/22 08:17:20;;;;;;;14.77;2.80;;;11.90;99.90;;;;;;5031211;28;39499;-73
2021/10/22 08:20:10;;;;;;;11.57;2.53;;;11.90;99.90;;;;;;5043576;28;39194;-73
2021/10/22 08:22:37;;;;;;;13.50;2.30;;;12.00;99.90;;;;;;5012583;28;47575;-72
2021/10/22 08:25:06;;;;;;;17.42;2.65;;;12.00;99.90;;;;;;5037236;28;37158;-72
2021/10/22 08:27:37;;;;;;;9.73;1.95;;;12.10;99.90;;;;;;5037045;28;48943;-72
2021/10/22 08:30:07;;;;;;;14.63;2.22;;;12.10;99.90;;;;;;5010606;28;37622;-72
2021/10/22 08:32:33;;;;;;;14.27;2.03;;;12.10;99.90;;;;;;5024391;28;47841;-71
2021/10/22 08:35:05;;;;;;;13.57;1.60;;;12.10;99.90;;;;;;5013096;28;36164;-73
2021/10/22 08:37:38;;;;;;;12.27;1.73;;;12.20;99.90;;;;;;5011980;28;47341;-71
2021/10/22 08:40:07;;;;;;;13.98;2.35;;;12.30;99.90;;;;;;5025379;28;38993;-72
2021/10/22 08:42:34;;;;;;;12.63;2.45;;;12.30;99.90;;;;;;4976881;28;47021;-72
2021/10/22 08:45:01;;;;;;;16.85;2.05;;;12.30;99.90;;;;;;5033910;28;37012;-72
2021/10/22 08:47:32;;;;;;;16.83;2.72;;;12.40;99.90;;;;;;5011963;28;47320;-73
2021/10/22 08:50:04;;;;;;;11.13;2.40;;;12.40;99.90;;;;;;5032288;28;39048;-76
2021/10/22 08:52:30;;;;;;;17.58;2.28;;;12.30;99.90;;;;;;5036903;28;48175;-72
2021/10/22 08:54:59;;;;;;;12.50;2.17;;;12.30;99.90;;;;;;5037689;28;38054;-73
2021/10/22 08:57:25;;;;;;;19.70;2.40;;;12.40;99.90;;;;;;5030979;28;39022;-72
2021/10/22 08:59:57;;;;;;;15.30;2.15;;;12.40;99.90;;;;;;4996374;28;39121;-71
2021/10/22 09:02:28;;;;;;;12.23;2.55;;;12.30;99.90;;;;;;5001757;28;38869;-72
2021/10/22 09:04:57;;;;;;;15.00;2.83;;;12.30;99.90;;;;;;5003833;28;37300;-73
2021/10/22 09:07:45;;;;;;;14.88;2.45;;;12.40;99.90;;;;;;5010630;28;38152;-72
2021/10/22 09:10:21;;;;;;;18.05;2.42;;;12.30;99.90;;;;;;5008037;28;38672;-72
2021/10/22 09:12:51;;;;;;;11.60;2.42;;;12.30;99.90;;;;;;5010119;28;37444;-72
2021/10/22 09:15:40;;;;;;;11.82;2.22;;;12.30;99.90;;;;;;5008039;28;37301;-72
2021/10/22 09:18:19;;;;;;;11.27;2.55;;;12.00;99.90;;;;;;5017647;28;39537;-72
2021/10/22 09:20:51;;;;;;;13.95;2.67;;;11.70;99.90;;;;;;5009968;28;39161;-72
2021/10/22 09:23:24;;;;;;;10.77;1.85;;;11.70;99.90;;;;;;5015014;28;39247;-72
2021/10/22 09:25:51;;;;;;;14.10;2.30;;;11.80;99.90;;;;;;5006360;28;37713;-72
2021/10/22 09:28:26;;;;;;;20.98;2.65;;;11.90;99.90;;;;;;5006357;28;37695;-72
2021/10/22 09:30:52;;;;;;;12.68;2.33;;;12.00;99.90;;;;;;5005740;28;37802;-72
2021/10/22 09:33:24;;;;;;;14.60;2.20;;;12.10;99.90;;;;;;5004902;28;38824;-72
2021/10/22 09:35:55;;;;;;;11.32;2.15;;;12.10;99.90;;;;;;5003161;28;37112;-72
2021/10/22 09:38:25;;;;;;;12.20;1.80;;;12.20;99.90;;;;;;5012574;28;39014;-73
2021/10/22 09:41:04;;;;;;;12.82;2.35;;;12.20;99.90;;;;;;5023142;28;38740;-72
2021/10/22 09:43:41;;;;;;;9.90;1.80;;;12.30;99.90;;;;;;5006989;28;47597;-72
2021/10/22 09:46:15;;;;;;;14.80;2.50;;;12.40;99.90;;;;;;5025982;28;36243;-73
2021/10/22 09:48:43;;;;;;;16.85;2.28;;;12.40;99.90;;;;;;5031518;28;39589;-72
2021/10/22 09:51:27;;;;;;;13.80;2.17;;;12.30;99.90;;;;;;5020192;28;38991;-72
2021/10/22 09:53:55;;;;;;;6.78;2.28;;;12.20;99.90;;;;;;5010342;28;37838;-72
2021/10/22 09:56:24;;;;;;;11.63;2.20;;;12.10;99.90;;;;;;5022331;28;37905;-72
2021/10/22 09:58:58;;;;;;;14.30;2.05;;;12.20;99.90;;;;;;5037411;28;39765;-72
2021/10/22 10:01:42;;;;;;;11.45;2.20;;;12.40;99.90;;;;;;5034953;28;37739;-72
2021/10/22 10:04:10;;;;;;;9.50;3.28;;;12.70;99.90;;;;;;5036325;28;37565;-72
2021/10/22 10:06:40;;;;;;;15.48;1.90;;;12.70;99.90;;;;;;5020371;28;36281;-72
2021/10/22 10:09:08;;;;;;;10.98;1.92;;;12.70;99.90;;;;;;5024385;28;37733;-72
2021/10/22 10:11:36;;;;;;;10.05;1.92;;;12.60;99.90;;;;;;5014728;28;40295;-73
2021/10/22 10:14:03;;;;;;;12.88;1.83;;;12.60;99.90;;;;;;5034148;28;37929;-73
2021/10/22 10:16:30;;;;;;;12.32;1.70;;;12.50;99.90;;;;;;5014389;28;36513;-72
2021/10/22 10:19:18;;;;;;;6.82;2.20;;;12.30;99.90;;;;;;5035904;28;39827;-73
2021/10/22 10:21:48;;;;;;;10.75;2.35;;;12.20;99.90;;;;;;5018177;28;48051;-72
2021/10/22 10:24:18;;;;;;;8.77;1.55;;;12.30;99.90;;;;;;5038637;28;38468;-73
2021/10/22 10:26:59;;;;;;;7.63;1.52;;;12.50;99.90;;;;;;5019963;28;37599;-73
2021/10/22 10:29:31;;;;;;;8.07;1.70;;;12.70;99.90;;;;;;5008303;28;37657;-72
2021/10/22 10:32:24;;;;;;;10.32;1.77;;;12.90;99.90;;;;;;5001827;28;38307;-73
2021/10/22 10:34:50;;;;;;;11.27;1.60;;;12.80;99.90;;;;;;5020146;28;47441;-72
2021/10/22 10:37:29;;;;;;;11.15;2.35;;;12.80;99.90;;;;;;5015081;28;36125;-72
2021/10/22 10:40:07;;;;;;;12.77;1.80;;;13.00;99.90;;;;;;5015156;28;38769;-72
2021/10/22 10:42:40;;;;;;;7.88;1.85;;;13.20;99.90;;;;;;5014765;28;47172;-73
2021/10/22 10:45:08;;;;;;;;;;;13.30;99.90;;;;;;5010056;28;35773;-73
2021/10/22 10:47:39;;;;;;;8.25;2.63;;;13.30;99.90;;;;;;5026088;28;37431;-72
2021/10/22 10:50:07;;;;;;;15.18;2.10;;;13.30;99.90;;;;;;5010132;28;38293;-73
2021/10/22 10:52:37;;;;;;;16.25;2.25;;;13.40;99.90;;;;;;5015005;28;38617;-71
2021/10/22 10:55:30;;;;;;;17.05;2.45;;;13.40;99.90;;;;;;5013144;28;37448;-72
2021/10/22 10:57:56;;;;;;;16.23;2.15;;;13.40;99.90;;;;;;5013454;28;47499;-71
2021/10/22 11:00:45;;;;;;;14.27;2.65;;;13.20;99.90;;;;;;5007087;28;39756;-72
2021/10/22 11:03:19;;;;;;;9.05;2.00;;;13.10;99.90;;;;;;5007856;28;39292;-71
2021/10/22 11:06:05;;;;;;;8.25;1.83;;;13.00;99.90;;;;;;5010720;28;37373;-71
2021/10/22 11:08:31;;;;;;;12.43;2.47;;;13.10;99.90;;;;;;5028897;28;48522;-71
2021/10/22 11:11:16;;;;;;;13.25;2.05;;;13.00;99.90;;;;;;5021867;28;37400;-72
2021/10/22 11:13:42;;;;;;;11.27;2.20;;;13.10;99.90;;;;;;5028119;28;48580;-72
2021/10/22 11:16:43;;;;;;;9.80;1.75;;;13.20;99.90;;;;;;5017586;28;40449;-73
2021/10/22 11:19:17;;;;;;;16.52;2.38;;;13.10;99.90;;;;;;5000326;28;37278;-72
2021/10/22 11:21:48;;;;;;;14.68;2.67;;;13.30;99.90;;;;;;5019102;28;40525;-71
2021/10/22 11:24:21;;;;;;;16.20;2.63;;;13.30;99.90;;;;;;5038755;28;37843;-71
2021/10/22 11:27:17;;;;;;;14.20;2.30;;;13.30;99.90;;;;;;5008516;28;38210;-70
2021/10/22 11:29:47;;;;;;;10.27;1.83;;;13.10;99.90;;;;;;5025982;28;49741;-72
2021/10/22 11:32:24;;;;;;;16.92;3.00;;;13.00;99.90;;;;;;5010035;28;38502;-71
2021/10/22 11:34:58;;;;;;;12.05;1.73;;;12.70;99.90;;;;;;5034460;28;39710;-71
2021/10/22 11:37:28;;;;;;;12.13;2.03;;;12.40;99.90;;;;;;5009947;28;37367;-71
2021/10/22 11:39:55;;;;;;;14.65;2.30;;;12.30;99.90;;;;;;5027017;28;36520;-74
2021/10/22 11:42:29;;;;;;;17.67;3.20;;;12.50;99.90;;;;;;5020150;28;38099;-71
2021/10/22 11:44:58;;;;;;;11.07;2.00;;;12.80;99.90;;;;;;5031871;28;39845;-74
2021/10/22 11:47:49;;;;;;;9.57;1.95;;;12.90;99.90;;;;;;5038011;28;38546;-73
2021/10/22 11:50:23;;;;;;;17.27;2.60;;;12.70;99.90;;;;;;5008353;28;36214;-72
2021/10/22 11:53:14;;;;;;;13.15;2.22;;;12.40;99.90;;;;;;5017897;28;39472;-73
2021/10/22 11:55:42;;;;;;;10.88;2.50;;;12.20;99.90;;;;;;5020247;28;47067;-74
2021/10/22 11:58:11;;;;;;;12.13;2.33;;;12.00;99.90;;;;;;5019237;28;37454;-74
2021/10/22 12:00:51;;;;;;;10.65;2.03;;;11.90;99.90;;;;;;5038887;28;37112;-74
2021/10/22 12:03:40;;;;;;;11.90;1.70;;;11.80;99.90;;;;;;5006524;28;37866;-73
2021/10/22 12:06:26;;;;;;;17.15;2.90;;;11.80;99.90;;;;;;5013272;28;38494;-73
2021/10/22 12:08:54;;;;;;;19.42;2.60;;;11.60;99.90;;;;;;5005517;28;37632;-73
2021/10/22 12:11:23;;;;;;;19.92;2.92;;;11.40;99.90;;;;;;5019982;28;35148;-73
2021/10/22 12:13:50;;;;;;;22.50;3.83;;;11.40;99.90;;;;;;5015337;28;37714;-74
2021/10/22 12:16:20;;;;;;;20.35;3.08;;;11.40;99.90;;;;;;5031292;28;39297;-73
2021/10/22 12:18:51;;;;;;;10.48;2.15;;;11.40;99.90;;;;;;5036427;28;38890;-73
2021/10/22 12:21:18;;;;;;;15.80;2.38;;;11.40;99.90;;;;;;5020449;28;36941;-74
2021/10/22 12:23:45;;;;;;;21.42;2.97;;;11.50;99.90;;;;;;5015613;28;39494;-73
2021/10/22 12:26:24;;;;;;;13.75;2.30;;;11.60;99.90;;;;;;5017503;28;39104;-73
2021/10/22 12:29:06;;;;;;;12.50;2.25;;;11.60;99.90;;;;;;5016363;28;37455;-73
2021/10/22 12:31:37;;;;;;;13.75;2.65;;;11.80;99.90;;;;;;5021162;28;47320;-73
2021/10/22 12:34:13;;;;;;;12.77;2.40;;;11.90;99.90;;;;;;5025952;28;39574;-73
2021/10/22 12:36:44;;;;;;;11.68;2.33;;;12.20;99.90;;;;;;5000887;28;37613;-73
2021/10/22 12:39:27;;;;;;;11.45;1.85;;;12.60;99.90;;;;;;5035966;28;39433;-73
2021/10/22 12:41:54;;;;;;;7.60;1.85;;;12.90;99.90;;;;;;5014715;28;36257;-73
2021/10/22 12:44:30;;;;;;;7.85;1.75;;;13.10;99.90;;;;;;5037645;28;38636;-72
2021/10/22 12:46:58;;;;;;;9.68;1.95;;;13.00;99.90;;;;;;5021402;28;37622;-72
2021/10/22 12:49:29;;;;;;;11.65;2.50;;;12.70;99.90;;;;;;5009825;28;38448;-72
2021/10/22 12:51:59;;;;;;;13.55;2.45;;;12.40;99.90;;;;;;5025920;28;38182;-72
2021/10/22 12:54:25;;;;;;;10.15;1.73;;;12.30;99.90;;;;;;5029815;28;38706;-72
2021/10/22 12:57:00;;;;;;;10.25;1.50;;;12.30;99.90;;;;;;5015617;28;39007;-72